메인 페이지
METAR-TAF:

METAR-TAF

공항 :

칭기즈 칸 국제공항

울란바토르, 몽골

위도: 47-55N, 경도: 106-52E, 고도: 1306m

현재 날씨관측

예보는 54분 전, 16:00시(UTC)에 발표되었습니다.
여러 방향의 바람 2kt
온도 8°C
습도 57%
기압 1005 hPa
시정 10km 이상
1500m 미만 상공 구름 및 적란운 없음

METAR: ZMUB 311600Z VRB01MPS CAVOK 08/M00 Q1005 NOSIG RMK QFE647.7 59

시각: 00:54 (16:54 UTC)

예보

예보는 6 시간 6분 전, 10:48시(UTC)에 발표되었습니다.
예보 대상 시간: 31일 12시부터 01일 18시까지 (UTC)
여러 방향의 바람 4kt
시정 10km 이상
고도 3000ft 상공 구름 조금, 적란운.
고도 3300ft 상공 구름 보통
전환 중
01일 02시부터 01일 04시까지 (UTC)
서북서16kt
전환 중
01일 11시부터 01일 13시까지 (UTC)
여러 방향의 바람 4kt
확률 40% :
일시적
01일 12시부터 01일 18시까지 (UTC)
여러 방향의 바람 16kt
고도 3000ft 상공 구름 보통, 적란운.
고도 3300ft 상공 구름 보통
뇌우, 비

TAF: ZMUB 311048Z 3112/0118 VRB02MPS 9999 FEW030CB SCT033 TN03/3122Z TX19/0107Z BECMG 0102/0104 29008MPS BECMG 0111/0113 VRB02MPS PROB40 TEMPO 0112/0118 VRB08MPS TSRA SCT030CB SCT033

4,000개 이상의 공항 관측 자료 및 예보 (METAR 및 TAF 보고).

지도상에서 검색 가능한 기상관측소가 노란 점과 빨간 점으로 표시되어 있습니다.

기상관측소 명을 보려면 표시 위로 마우스를 이동하세요.

날씨 관측과 예보를 보려면 클릭하세요.

지도 변경 : 확대하려면 엑스 표시가 있는 녹색 버튼, 축소하려면 빼기 표시가 있는 녹색 버튼, 다음 페이지의 지도를 보려면 녹색 화살표를 클릭하세요.


METAR-TAF: